createdAt,value
2023-05-05T00:00:07.011Z,53.40
2023-05-05T00:01:06.879Z,53.60
2023-05-05T00:02:06.919Z,53.50
2023-05-05T00:03:06.939Z,53.63
2023-05-05T00:04:07.008Z,53.40
2023-05-05T00:05:07.022Z,53.50
2023-05-05T00:06:07.101Z,53.83
2023-05-05T00:07:07.154Z,53.93
2023-05-05T00:08:07.155Z,53.50
2023-05-05T00:09:07.244Z,53.40
2023-05-05T00:10:07.476Z,53.72
2023-05-05T00:11:07.300Z,53.30
2023-05-05T00:12:07.319Z,53.72
2023-05-05T00:13:07.434Z,53.83
2023-05-05T00:14:07.344Z,53.85
2023-05-05T00:15:07.408Z,53.83
2023-05-05T00:16:07.451Z,53.63
2023-05-05T00:17:07.487Z,54.05
2023-05-05T00:18:07.637Z,53.63
2023-05-05T00:19:07.565Z,53.75
2023-05-05T00:20:07.951Z,53.52
2023-05-05T00:21:07.621Z,53.63
2023-05-05T00:22:07.615Z,53.83
2023-05-05T00:23:07.659Z,53.52
2023-05-05T00:24:07.677Z,53.96
2023-05-05T00:25:07.703Z,53.63
2023-05-05T00:26:07.728Z,53.52
2023-05-05T00:27:07.763Z,53.42
2023-05-05T00:28:07.748Z,53.12
2023-05-05T00:29:07.809Z,53.65
2023-05-05T00:30:08.174Z,53.52
2023-05-05T00:31:07.873Z,53.63
2023-05-05T00:32:07.863Z,53.42
2023-05-05T00:33:07.868Z,53.65
2023-05-05T00:34:07.945Z,53.85
2023-05-05T00:35:07.998Z,53.65
2023-05-05T00:36:08.030Z,53.30
2023-05-05T00:37:08.054Z,53.12
2023-05-05T00:38:08.062Z,53.65
2023-05-05T00:39:08.095Z,53.85
2023-05-05T00:40:08.337Z,53.42
2023-05-05T00:41:08.224Z,53.32
2023-05-05T00:42:08.195Z,53.00
2023-05-05T00:43:08.255Z,53.75
2023-05-05T00:44:08.305Z,53.75
2023-05-05T00:45:08.299Z,53.52
2023-05-05T00:46:08.385Z,53.52
2023-05-05T00:47:08.394Z,53.98
2023-05-05T00:48:08.441Z,54.18
2023-05-05T00:49:08.531Z,53.96
2023-05-05T00:50:08.722Z,53.96
2023-05-05T00:51:08.574Z,53.85
2023-05-05T00:52:08.629Z,54.28
2023-05-05T00:53:08.662Z,54.05
2023-05-05T00:54:08.682Z,53.78
2023-05-05T00:55:08.679Z,54.28
2023-05-05T00:56:08.750Z,54.28
2023-05-05T00:57:08.759Z,54.28
2023-05-05T00:58:08.840Z,54.49
2023-05-05T00:59:08.863Z,54.28
2023-05-05T01:00:09.093Z,54.08
2023-05-05T01:01:09.026Z,54.51
2023-05-05T01:02:08.975Z,54.51
2023-05-05T01:03:09.207Z,54.31
2023-05-05T01:04:09.046Z,54.49
2023-05-05T01:05:09.098Z,53.88
2023-05-05T01:06:09.113Z,54.28
2023-05-05T01:07:09.122Z,54.08
2023-05-05T01:08:09.155Z,53.98
2023-05-05T01:09:09.168Z,53.98
2023-05-05T01:10:19.545Z,53.88
2023-05-05T01:11:09.217Z,54.08
2023-05-05T01:12:09.245Z,53.45
2023-05-05T01:13:09.406Z,53.58
2023-05-05T01:14:09.300Z,53.58
2023-05-05T01:15:09.325Z,53.98
2023-05-05T01:16:09.333Z,53.88
2023-05-05T01:17:09.354Z,53.67
2023-05-05T01:18:09.374Z,53.45
2023-05-05T01:19:09.386Z,53.14
2023-05-05T01:20:09.593Z,53.34
2023-05-05T01:21:09.441Z,53.45
2023-05-05T01:22:09.436Z,53.38
2023-05-05T01:23:09.480Z,53.25
2023-05-05T01:24:09.522Z,52.94
2023-05-05T01:25:09.520Z,52.74
2023-05-05T01:29:01.572Z,53.17
2023-05-05T01:38:37.401Z,53.38
2023-05-05T01:52:31.259Z,52.54
2023-05-05T01:53:31.357Z,53.27
2023-05-05T01:54:31.290Z,53.80
2023-05-05T01:55:31.390Z,53.60
2023-05-05T01:56:31.382Z,53.93
2023-05-05T01:57:31.451Z,53.90
2023-05-05T01:58:31.433Z,53.38
2023-05-05T01:59:31.448Z,53.38
2023-05-05T02:00:31.503Z,53.50
2023-05-05T02:01:31.589Z,53.80
2023-05-05T02:02:31.655Z,53.60
2023-05-05T02:03:31.639Z,53.70
2023-05-05T02:04:31.612Z,54.03
2023-05-05T02:05:31.639Z,53.80
2023-05-05T02:06:31.646Z,53.50
2023-05-05T02:07:31.667Z,53.40
2023-05-05T02:08:31.697Z,53.30
2023-05-05T02:09:31.754Z,53.30
2023-05-05T02:10:31.794Z,53.30
2023-05-05T02:11:31.807Z,53.17
2023-05-05T02:12:31.892Z,52.84
2023-05-05T02:13:31.920Z,52.64
2023-05-05T02:14:31.918Z,52.56
2023-05-05T02:15:31.976Z,53.19
2023-05-05T02:16:31.982Z,53.19
2023-05-05T02:17:32.087Z,53.40
2023-05-05T02:18:32.076Z,53.70
2023-05-05T02:19:32.090Z,53.30
2023-05-05T02:20:32.108Z,53.83
2023-05-05T02:22:58.098Z,53.40
2023-05-05T02:23:58.187Z,53.40
2023-05-05T02:24:58.204Z,53.09
2023-05-05T02:25:58.264Z,53.40
2023-05-05T02:26:58.296Z,53.32
2023-05-05T02:27:58.330Z,53.50
2023-05-05T02:28:58.311Z,53.19
2023-05-05T02:29:58.367Z,53.09
2023-05-05T02:30:58.396Z,53.09
2023-05-05T02:31:58.403Z,52.99
2023-05-05T02:32:58.436Z,52.97
2023-05-05T02:33:58.451Z,52.76
2023-05-05T02:34:58.461Z,52.76
2023-05-05T02:35:58.463Z,52.67
2023-05-05T02:36:58.507Z,53.42
2023-05-05T02:37:58.520Z,53.09
2023-05-05T02:38:58.619Z,53.40
2023-05-05T02:39:58.679Z,53.72
2023-05-05T02:40:58.674Z,53.52
2023-05-05T02:41:58.711Z,53.50
2023-05-05T02:42:58.767Z,53.19
2023-05-05T02:43:58.739Z,53.32
2023-05-05T02:44:58.700Z,53.63
2023-05-05T02:45:58.750Z,53.72
2023-05-05T02:46:58.767Z,53.42
2023-05-05T02:47:58.829Z,53.19
2023-05-05T02:48:58.789Z,53.63
2023-05-05T02:49:58.822Z,53.50
2023-05-05T02:50:58.840Z,53.19
2023-05-05T02:51:58.853Z,53.30
2023-05-05T02:52:58.867Z,53.63
2023-05-05T02:53:58.868Z,54.16
2023-05-05T02:54:58.927Z,54.26
2023-05-05T02:55:58.954Z,54.05
2023-05-05T02:56:58.966Z,54.16
2023-05-05T02:57:58.946Z,53.96
2023-05-05T02:58:58.986Z,54.26
2023-05-05T02:59:58.996Z,54.26
2023-05-05T03:00:59.038Z,54.16
2023-05-05T03:01:59.146Z,53.83
2023-05-05T03:02:59.156Z,54.16
2023-05-05T03:03:59.116Z,53.96
2023-05-05T03:04:59.057Z,54.05
2023-05-05T03:05:59.106Z,54.16
2023-05-05T03:06:59.115Z,54.16
2023-05-05T03:07:59.194Z,53.83
2023-05-05T03:08:59.249Z,53.72
2023-05-05T03:09:59.280Z,53.63
2023-05-05T03:10:59.296Z,53.42
2023-05-05T03:11:59.319Z,53.63
2023-05-05T03:12:59.370Z,53.63
2023-05-05T03:13:59.347Z,53.55
2023-05-05T03:14:59.375Z,54.05
2023-05-05T03:15:59.448Z,53.52
2023-05-05T03:16:59.430Z,53.63
2023-05-05T03:17:59.500Z,53.22
2023-05-05T03:18:59.456Z,53.85
2023-05-05T03:20:00.525Z,53.85
2023-05-05T03:20:59.451Z,53.96
2023-05-05T03:21:59.537Z,54.05
2023-05-05T03:22:59.599Z,53.93
2023-05-05T03:23:59.586Z,53.40
2023-05-05T03:24:59.600Z,53.40
2023-05-05T03:25:59.656Z,53.72
2023-05-05T03:26:59.658Z,54.26
2023-05-05T03:27:59.730Z,54.36
2023-05-05T03:28:59.686Z,54.69
2023-05-05T03:29:59.730Z,55.10
2023-05-05T03:30:59.782Z,55.52
2023-05-05T03:31:59.867Z,55.19
2023-05-05T03:32:59.889Z,55.10
2023-05-05T03:33:59.895Z,55.19
2023-05-05T03:34:59.931Z,55.10
2023-05-05T03:35:59.972Z,55.19
2023-05-05T03:37:00.032Z,55.30
2023-05-05T03:38:00.037Z,55.50
2023-05-05T03:39:00.059Z,55.50
2023-05-05T03:40:00.126Z,55.10
2023-05-05T03:41:00.132Z,55.30
2023-05-05T03:42:00.160Z,55.19
2023-05-05T03:43:00.156Z,55.40
2023-05-05T03:44:00.192Z,55.40
2023-05-05T03:45:00.195Z,55.19
2023-05-05T03:46:00.185Z,55.63
2023-05-05T03:47:00.182Z,55.30
2023-05-05T03:48:00.263Z,54.97
2023-05-05T03:49:02.837Z,54.97
2023-05-05T03:50:00.365Z,54.86
2023-05-05T03:52:31.886Z,54.74
2023-05-05T03:53:31.524Z,54.66
2023-05-05T03:54:31.548Z,54.99
2023-05-05T03:55:31.772Z,55.27
2023-05-05T03:56:31.681Z,54.97
2023-05-05T03:57:31.694Z,55.40
2023-05-05T03:58:31.755Z,54.97
2023-05-05T03:59:32.699Z,54.97
2023-05-05T04:00:31.794Z,54.74
2023-05-05T04:01:31.846Z,54.66
2023-05-05T04:02:31.912Z,54.66
2023-05-05T04:03:31.982Z,54.64
2023-05-05T04:04:32.045Z,55.10
2023-05-05T04:05:31.964Z,55.50
2023-05-05T04:06:31.997Z,55.60
2023-05-05T04:07:31.958Z,55.70
2023-05-05T04:08:32.030Z,55.63
2023-05-05T04:09:32.065Z,55.80
2023-05-05T04:10:32.175Z,56.03
2023-05-05T04:11:32.203Z,55.80
2023-05-05T04:12:32.219Z,55.90
2023-05-05T04:13:32.184Z,55.70
2023-05-05T04:14:32.281Z,55.37
2023-05-05T04:15:32.303Z,55.07
2023-05-05T04:16:32.296Z,55.50
2023-05-05T04:17:32.328Z,55.57
2023-05-05T04:18:32.298Z,55.37
2023-05-05T04:19:32.287Z,55.17
2023-05-05T04:20:32.375Z,55.30
2023-05-05T04:21:32.342Z,55.80
2023-05-05T04:22:32.415Z,56.03
2023-05-05T04:23:32.380Z,56.57
2023-05-05T04:24:32.474Z,56.57
2023-05-05T04:25:32.580Z,56.34
2023-05-05T04:26:32.612Z,56.23
2023-05-05T04:27:32.644Z,56.67
2023-05-05T04:28:35.258Z,56.44
2023-05-05T04:29:34.447Z,56.44
2023-05-05T04:30:42.225Z,56.23
2023-05-05T04:31:32.744Z,56.13
2023-05-05T04:32:32.783Z,55.90
2023-05-05T04:33:32.733Z,55.73
2023-05-05T04:34:32.752Z,56.67
2023-05-05T04:35:32.811Z,56.67
2023-05-05T04:36:32.834Z,56.57
2023-05-05T04:37:32.883Z,56.77
2023-05-05T04:38:33.137Z,56.74
2023-05-05T04:39:33.005Z,56.54
2023-05-05T04:40:33.069Z,56.34
2023-05-05T04:41:33.063Z,56.44
2023-05-05T04:42:33.080Z,56.23
2023-05-05T04:43:33.105Z,56.54
2023-05-05T04:44:33.124Z,56.44
2023-05-05T04:45:33.160Z,56.21
2023-05-05T04:46:33.235Z,56.54
2023-05-05T04:47:33.221Z,56.34
2023-05-05T04:48:33.265Z,56.31
2023-05-05T04:49:33.293Z,56.34
2023-05-05T04:50:33.357Z,56.01
2023-05-05T04:51:33.386Z,56.21
2023-05-05T04:52:33.433Z,56.23
2023-05-05T04:53:33.474Z,56.54
2023-05-05T04:54:33.445Z,56.54
2023-05-05T04:55:33.488Z,56.10
2023-05-05T04:56:33.606Z,55.80
2023-05-05T04:57:33.639Z,55.80
2023-05-05T04:58:33.665Z,55.70
2023-05-05T04:59:33.652Z,55.57
2023-05-05T05:00:33.656Z,55.27
2023-05-05T05:01:35.182Z,55.80
2023-05-05T05:02:33.926Z,55.47
2023-05-05T05:03:33.925Z,55.57
2023-05-05T05:04:33.860Z,55.35
2023-05-05T05:05:33.906Z,54.74
2023-05-05T05:06:33.827Z,54.31
2023-05-05T05:07:33.897Z,54.31
2023-05-05T05:08:33.944Z,54.31
2023-05-05T05:09:33.986Z,54.61
2023-05-05T05:10:33.997Z,54.84
2023-05-05T05:11:33.966Z,53.65
2023-05-05T05:12:34.051Z,53.02
2023-05-05T05:13:34.005Z,51.76
2023-05-05T05:14:34.065Z,51.86
2023-05-05T05:15:34.098Z,52.54
2023-05-05T05:16:34.189Z,53.34
2023-05-05T05:17:34.139Z,53.67
2023-05-05T05:18:34.156Z,53.34
2023-05-05T05:19:34.221Z,52.79
2023-05-05T05:22:00.240Z,50.50
2023-05-05T05:23:00.301Z,50.70
2023-05-05T05:24:00.323Z,51.96
2023-05-05T05:25:00.401Z,52.39
2023-05-05T05:26:00.430Z,52.16
2023-05-05T05:27:00.471Z,52.36
2023-05-05T05:28:09.604Z,51.86
2023-05-05T05:29:00.489Z,52.06
2023-05-05T05:30:00.473Z,52.06
2023-05-05T05:31:00.559Z,52.26
2023-05-05T05:32:00.604Z,52.36
2023-05-05T05:33:00.607Z,52.89
2023-05-05T05:34:00.610Z,52.44
2023-05-05T05:35:00.677Z,51.10
2023-05-05T05:36:00.636Z,51.51
2023-05-05T05:37:00.801Z,52.04
2023-05-05T05:38:00.728Z,52.36
2023-05-05T05:39:00.728Z,52.44
2023-05-05T05:40:00.793Z,51.93
2023-05-05T05:41:00.778Z,51.38
2023-05-05T05:42:00.840Z,51.31
2023-05-05T05:43:00.910Z,51.93
2023-05-05T05:44:00.917Z,53.09
2023-05-05T05:45:00.930Z,54.13
2023-05-05T05:46:01.019Z,54.33
2023-05-05T05:47:00.990Z,54.43
2023-05-05T05:48:00.999Z,54.66
2023-05-05T05:50:40.026Z,54.66
2023-05-05T05:51:33.645Z,54.66
2023-05-05T05:52:33.681Z,55.16
2023-05-05T05:53:33.581Z,54.83
2023-05-05T05:54:33.851Z,55.24
2023-05-05T05:55:33.896Z,56.35
2023-05-05T05:56:33.739Z,56.68
2023-05-05T05:57:33.702Z,58.53
2023-05-05T05:58:33.755Z,58.73
2023-05-05T05:59:33.933Z,58.76
2023-05-05T06:00:33.734Z,59.36
2023-05-05T06:01:33.944Z,59.97
2023-05-05T06:02:33.917Z,60.96
2023-05-05T06:03:33.996Z,60.65
2023-05-05T06:04:33.939Z,61.46
2023-05-05T06:05:33.968Z,61.79
2023-05-05T06:06:33.998Z,61.72
2023-05-05T06:07:33.987Z,61.90
2023-05-05T06:08:34.128Z,62.57
2023-05-05T06:09:34.248Z,62.37
2023-05-05T06:10:34.533Z,62.87
2023-05-05T06:11:34.156Z,61.96
2023-05-05T06:12:34.228Z,62.74
2023-05-05T06:13:34.272Z,61.69
2023-05-05T06:14:34.403Z,62.50
2023-05-05T06:15:34.454Z,62.37
2023-05-05T06:16:34.514Z,62.37
2023-05-05T06:17:34.519Z,61.83
2023-05-05T06:18:34.494Z,61.63
2023-05-05T06:19:34.574Z,61.63
2023-05-05T06:20:34.586Z,61.94
2023-05-05T06:21:34.581Z,62.24
2023-05-05T06:22:34.594Z,64.19
2023-05-05T06:23:34.768Z,64.09
2023-05-05T06:24:34.604Z,64.46
2023-05-05T06:25:34.617Z,64.16
2023-05-05T06:26:34.602Z,63.79
2023-05-05T06:27:34.697Z,61.56
2023-05-05T06:28:34.658Z,60.84
2023-05-05T06:29:34.741Z,58.67
2023-05-05T06:30:34.740Z,56.13
2023-05-05T06:31:34.772Z,58.50
2023-05-05T06:32:34.809Z,56.92
2023-05-05T06:33:34.756Z,58.22
2023-05-05T06:34:34.755Z,57.90
2023-05-05T06:35:34.817Z,57.14
2023-05-05T06:36:34.926Z,56.34
2023-05-05T06:37:34.919Z,56.38
2023-05-05T06:38:34.916Z,56.38
2023-05-05T06:39:34.936Z,56.91
2023-05-05T06:40:34.981Z,56.76
2023-05-05T06:41:35.036Z,55.80
2023-05-05T06:42:35.019Z,54.12
2023-05-05T06:43:35.004Z,53.17
2023-05-05T06:44:35.010Z,52.24
2023-05-05T06:45:35.059Z,53.14
2023-05-05T06:46:35.126Z,55.78
2023-05-05T06:47:35.171Z,56.10
2023-05-05T06:48:35.217Z,57.70
2023-05-05T06:49:35.259Z,58.86
2023-05-05T06:50:36.156Z,59.62
2023-05-05T06:51:35.285Z,60.45
2023-05-05T06:52:35.307Z,61.36
2023-05-05T06:53:35.377Z,61.43
2023-05-05T06:54:35.425Z,60.45
2023-05-05T06:55:35.448Z,61.79
2023-05-05T06:56:35.492Z,61.36
2023-05-05T06:57:35.532Z,60.75
2023-05-05T06:58:35.585Z,61.18
2023-05-05T06:59:35.631Z,62.12
2023-05-05T07:00:35.660Z,62.45
2023-05-05T07:01:35.694Z,62.93
2023-05-05T07:02:35.808Z,62.52
2023-05-05T07:03:35.836Z,61.95
2023-05-05T07:04:35.792Z,62.88
2023-05-05T07:05:35.838Z,62.48
2023-05-05T07:06:35.932Z,63.52
2023-05-05T07:07:35.888Z,63.93
2023-05-05T07:08:35.907Z,64.00
2023-05-05T07:09:35.947Z,64.00
2023-05-05T07:10:35.994Z,66.22
2023-05-05T07:11:36.081Z,67.86
2023-05-05T07:12:36.172Z,70.39
2023-05-05T07:13:36.089Z,72.08
2023-05-05T07:14:36.139Z,75.01
2023-05-05T07:15:36.143Z,77.58
2023-05-05T07:16:36.226Z,79.17
2023-05-05T07:17:36.214Z,80.22
2023-05-05T07:18:36.190Z,82.76
2023-05-05T07:19:36.230Z,83.43
2023-05-05T07:20:36.261Z,84.04
2023-05-05T07:21:36.271Z,82.92
2023-05-05T07:22:36.276Z,82.72
2023-05-05T07:23:36.379Z,82.11
2023-05-05T07:24:36.380Z,82.62
2023-05-05T07:25:36.386Z,82.68
2023-05-05T07:26:36.401Z,82.48
2023-05-05T07:27:36.390Z,82.48
2023-05-05T07:28:36.441Z,82.68
2023-05-05T07:29:36.495Z,82.89
2023-05-05T07:30:36.537Z,82.75
2023-05-05T07:31:36.535Z,82.75
2023-05-05T07:32:36.563Z,82.95
2023-05-05T07:33:36.568Z,82.75
2023-05-05T07:34:36.539Z,83.04
2023-05-05T07:35:36.556Z,83.35
2023-05-05T07:36:36.589Z,83.11
2023-05-05T07:37:36.697Z,83.21
2023-05-05T07:38:36.646Z,83.51
2023-05-05T07:39:36.677Z,83.01
2023-05-05T07:40:36.659Z,83.92
2023-05-05T07:41:36.663Z,83.88
2023-05-05T07:42:36.720Z,83.07
2023-05-05T07:43:37.908Z,82.73
2023-05-05T07:44:36.801Z,81.65
2023-05-05T07:45:36.900Z,82.56
2023-05-05T07:46:36.894Z,82.76
2023-05-05T07:47:36.886Z,82.87
2023-05-05T07:48:36.953Z,82.76
2023-05-05T07:49:36.946Z,82.76
2023-05-05T07:50:36.945Z,81.85
2023-05-05T07:51:36.965Z,82.32
2023-05-05T07:52:44.986Z,82.53
2023-05-05T07:53:37.061Z,82.06
2023-05-05T07:54:37.083Z,82.56
2023-05-05T07:55:37.091Z,81.49
2023-05-05T07:56:37.131Z,82.46
2023-05-05T07:57:37.147Z,82.56
2023-05-05T07:58:37.196Z,82.76
2023-05-05T07:59:37.222Z,82.97
2023-05-05T08:00:37.258Z,83.03
2023-05-05T08:01:37.276Z,83.23
2023-05-05T08:02:37.355Z,82.93
2023-05-05T08:03:37.596Z,82.79
2023-05-05T08:04:37.409Z,82.69
2023-05-05T08:05:37.408Z,82.59
2023-05-05T08:06:37.456Z,82.62
2023-05-05T08:07:37.450Z,82.89
2023-05-05T08:08:37.472Z,82.89
2023-05-05T08:09:37.528Z,82.79
2023-05-05T08:10:37.567Z,83.40
2023-05-05T08:11:37.511Z,83.36
2023-05-05T08:12:37.606Z,82.91
2023-05-05T08:13:37.568Z,82.71
2023-05-05T08:14:37.692Z,82.21
2023-05-05T08:15:37.601Z,82.27
2023-05-05T08:16:37.670Z,81.96
2023-05-05T08:17:37.718Z,81.82
2023-05-05T08:18:37.753Z,81.42
2023-05-05T08:19:37.768Z,80.72
2023-05-05T08:20:37.770Z,80.41
2023-05-05T08:21:37.808Z,80.27
2023-05-05T08:22:37.807Z,80.04
2023-05-05T08:23:37.871Z,79.90
2023-05-05T08:24:37.892Z,80.46
2023-05-05T08:25:37.966Z,80.02
2023-05-05T08:26:37.990Z,78.61
2023-05-05T08:27:38.085Z,77.77
2023-05-05T08:28:38.035Z,79.04
2023-05-05T08:29:38.144Z,76.83
2023-05-05T08:30:38.225Z,77.03
2023-05-05T08:31:38.325Z,77.47
2023-05-05T08:32:38.322Z,78.00
2023-05-05T08:33:38.220Z,76.92
2023-05-05T08:34:38.236Z,76.78
2023-05-05T08:35:38.263Z,76.08
2023-05-05T08:36:38.277Z,75.08
2023-05-05T08:37:38.290Z,74.77
2023-05-05T08:38:38.331Z,75.54
2023-05-05T08:39:38.397Z,74.88
2023-05-05T08:40:38.464Z,73.77
2023-05-05T08:41:38.488Z,72.50
2023-05-05T08:42:39.604Z,73.47
2023-05-05T08:43:38.501Z,72.43
2023-05-05T08:44:38.579Z,72.30
2023-05-05T08:45:38.492Z,71.06
2023-05-05T08:46:38.635Z,71.16
2023-05-05T08:47:38.600Z,70.53
2023-05-05T08:48:38.629Z,71.03
2023-05-05T08:49:38.719Z,67.96
2023-05-05T08:50:38.704Z,67.55
2023-05-05T08:51:38.735Z,70.76
2023-05-05T08:52:38.786Z,70.66
2023-05-05T08:53:38.814Z,71.00
2023-05-05T08:54:38.894Z,70.43
2023-05-05T08:55:38.897Z,69.42
2023-05-05T08:56:39.071Z,69.59
2023-05-05T08:57:38.910Z,68.96
2023-05-05T08:58:38.884Z,68.23
2023-05-05T08:59:38.879Z,66.52
2023-05-05T09:00:38.957Z,65.55
2023-05-05T09:01:38.993Z,65.39
2023-05-05T09:02:39.031Z,68.39
2023-05-05T09:03:39.010Z,67.96
2023-05-05T09:04:38.961Z,67.18
2023-05-05T09:05:39.039Z,66.99
2023-05-05T09:06:39.102Z,66.78
2023-05-05T09:07:39.103Z,68.96
2023-05-05T09:08:39.178Z,67.96
2023-05-05T09:09:39.177Z,64.40
2023-05-05T09:10:39.221Z,63.78
2023-05-05T09:11:39.323Z,61.17
2023-05-05T09:12:39.346Z,61.78
2023-05-05T09:13:39.371Z,60.03
2023-05-05T09:14:39.442Z,55.94
2023-05-05T09:15:39.386Z,55.69
2023-05-05T09:16:39.448Z,58.43
2023-05-05T09:17:39.581Z,57.64
2023-05-05T09:18:39.502Z,60.39
2023-05-05T09:19:39.485Z,55.35
2023-05-05T09:20:39.552Z,55.25
2023-05-05T09:21:39.660Z,56.10
2023-05-05T09:22:39.676Z,56.40
2023-05-05T09:23:39.694Z,57.73
2023-05-05T09:24:39.687Z,57.77
2023-05-05T09:25:39.703Z,56.47
2023-05-05T09:26:39.696Z,57.81
2023-05-05T09:27:39.712Z,54.77
2023-05-05T09:28:39.701Z,53.85
2023-05-05T09:29:39.701Z,56.04
2023-05-05T09:30:39.722Z,53.21
2023-05-05T09:31:39.693Z,53.44
2023-05-05T09:32:39.751Z,55.27
2023-05-05T09:33:39.767Z,56.77
2023-05-05T09:34:39.822Z,56.70
2023-05-05T09:35:39.824Z,57.24
2023-05-05T09:36:39.828Z,54.25
2023-05-05T09:37:39.833Z,54.95
2023-05-05T09:38:39.876Z,55.85
2023-05-05T09:39:39.866Z,56.41
2023-05-05T09:40:39.895Z,57.41
2023-05-05T09:41:39.888Z,51.75
2023-05-05T09:42:39.969Z,53.98
2023-05-05T09:43:39.982Z,56.57
2023-05-05T09:44:40.002Z,56.81
2023-05-05T09:45:40.046Z,55.05
2023-05-05T09:46:40.166Z,55.23
2023-05-05T09:47:40.170Z,54.90
2023-05-05T09:48:40.191Z,54.61
2023-05-05T09:49:40.193Z,56.68
2023-05-05T09:50:40.204Z,56.77
2023-05-05T09:51:40.198Z,53.08
2023-05-05T09:52:40.273Z,51.54
2023-05-05T09:53:40.270Z,52.24
2023-05-05T09:54:40.285Z,51.65
2023-05-05T09:55:40.302Z,51.42
2023-05-05T09:56:40.316Z,51.20
2023-05-05T09:57:40.300Z,48.21
2023-05-05T09:58:40.318Z,49.79
2023-05-05T09:59:40.323Z,50.09
2023-05-05T10:00:40.419Z,49.00
2023-05-05T10:01:40.448Z,48.18
2023-05-05T10:02:40.444Z,48.53
2023-05-05T10:03:40.436Z,53.55
2023-05-05T10:04:40.460Z,49.74
2023-05-05T10:05:40.454Z,48.71
2023-05-05T10:06:40.428Z,49.01
2023-05-05T10:07:40.476Z,48.85
2023-05-05T10:08:40.486Z,49.79
2023-05-05T10:09:40.553Z,49.96
2023-05-05T10:10:40.555Z,49.25
2023-05-05T10:11:40.543Z,49.99
2023-05-05T10:12:40.610Z,46.81
2023-05-05T10:13:40.625Z,46.81
2023-05-05T10:14:40.619Z,47.74
2023-05-05T10:15:40.626Z,47.00
2023-05-05T10:16:40.723Z,45.50
2023-05-05T10:17:42.558Z,46.67
2023-05-05T10:18:40.668Z,48.33
2023-05-05T10:19:40.699Z,50.56
2023-05-05T10:20:40.725Z,49.96
2023-05-05T10:21:42.050Z,48.47
2023-05-05T10:22:40.845Z,51.03
2023-05-05T10:23:40.874Z,50.76
2023-05-05T10:24:40.926Z,48.01
2023-05-05T10:25:40.949Z,48.45
2023-05-05T10:26:40.989Z,49.32
2023-05-05T10:27:41.064Z,47.99
2023-05-05T10:28:41.072Z,46.88
2023-05-05T10:29:41.088Z,46.14
2023-05-05T10:30:41.113Z,48.02
2023-05-05T10:31:41.146Z,47.49
2023-05-05T10:33:41.279Z,51.05
2023-05-05T10:34:41.255Z,50.81
2023-05-05T10:35:41.239Z,48.87
2023-05-05T10:36:41.232Z,48.43
2023-05-05T10:37:41.233Z,48.40
2023-05-05T10:38:41.292Z,48.26
2023-05-05T10:39:41.296Z,49.07
2023-05-05T10:40:41.565Z,49.59
2023-05-05T10:41:41.405Z,49.44
2023-05-05T10:42:41.492Z,48.43
2023-05-05T10:43:41.476Z,47.59
2023-05-05T10:44:41.504Z,49.40
2023-05-05T10:45:41.637Z,51.05
2023-05-05T10:46:41.696Z,46.95
2023-05-05T10:47:41.712Z,46.22
2023-05-05T10:48:41.757Z,47.72
2023-05-05T10:49:41.701Z,47.62
2023-05-05T10:50:41.758Z,48.19
2023-05-05T10:51:41.794Z,47.52
2023-05-05T10:52:41.808Z,47.64
2023-05-05T10:53:41.865Z,47.13
2023-05-05T10:54:41.916Z,45.54
2023-05-05T10:55:42.041Z,46.78
2023-05-05T10:56:41.988Z,47.37
2023-05-05T10:57:42.019Z,48.33
2023-05-05T10:58:58.419Z,46.70
2023-05-05T10:59:42.111Z,48.08
2023-05-05T11:00:42.122Z,50.58
2023-05-05T11:01:42.172Z,51.18
2023-05-05T11:02:43.042Z,49.86
2023-05-05T11:03:42.376Z,48.92
2023-05-05T11:04:42.280Z,49.42
2023-05-05T11:05:42.367Z,50.11
2023-05-05T11:06:42.360Z,50.21
2023-05-05T11:07:42.407Z,48.60
2023-05-05T11:08:42.467Z,47.89
2023-05-05T11:09:42.523Z,50.04
2023-05-05T11:10:42.567Z,48.53
2023-05-05T11:11:42.720Z,46.81
2023-05-05T11:12:42.651Z,45.76
2023-05-05T11:13:42.733Z,46.75
2023-05-05T11:14:42.741Z,47.13
2023-05-05T11:15:42.800Z,46.53
2023-05-05T11:16:42.890Z,47.81
2023-05-05T11:17:42.943Z,46.70
2023-05-05T11:18:42.953Z,46.33
2023-05-05T11:19:43.038Z,47.44
2023-05-05T11:20:43.072Z,48.46
2023-05-05T11:21:43.045Z,48.85
2023-05-05T11:22:43.101Z,47.72
2023-05-05T11:23:43.148Z,47.34
2023-05-05T11:24:43.181Z,48.26
2023-05-05T11:25:43.228Z,47.74
2023-05-05T11:26:43.413Z,49.08
2023-05-05T11:27:43.339Z,45.48
2023-05-05T11:28:43.309Z,45.75
2023-05-05T11:29:43.347Z,43.64
2023-05-05T11:30:43.434Z,44.43
2023-05-05T11:31:43.461Z,42.87
2023-05-05T11:32:43.515Z,43.56
2023-05-05T11:33:43.549Z,44.10
2023-05-05T11:34:43.616Z,44.47
2023-05-05T11:35:43.662Z,45.26
2023-05-05T11:36:43.699Z,43.74
2023-05-05T11:37:43.823Z,42.73
2023-05-05T11:38:43.788Z,43.18
2023-05-05T11:39:43.828Z,41.67
2023-05-05T11:40:43.808Z,40.31
2023-05-05T11:41:43.894Z,40.94
2023-05-05T11:42:43.869Z,42.81
2023-05-05T11:43:43.923Z,41.63
2023-05-05T11:44:43.954Z,41.09
2023-05-05T11:45:44.000Z,41.25
2023-05-05T11:46:44.057Z,39.88
2023-05-05T11:47:44.088Z,41.24
2023-05-05T11:48:44.101Z,42.22
2023-05-05T11:49:44.142Z,39.92
2023-05-05T11:50:44.197Z,40.72
2023-05-05T11:51:44.278Z,42.99
2023-05-05T11:52:44.408Z,43.43
2023-05-05T11:53:44.322Z,43.98
2023-05-05T11:54:44.262Z,42.68
2023-05-05T11:55:44.331Z,42.24
2023-05-05T11:56:44.365Z,42.24
2023-05-05T11:57:45.037Z,44.42
2023-05-05T11:58:44.499Z,46.27
2023-05-05T11:59:44.412Z,46.39
2023-05-05T12:00:44.426Z,48.32
2023-05-05T12:01:44.358Z,48.40
2023-05-05T12:02:44.515Z,48.97
2023-05-05T12:03:44.514Z,47.75
2023-05-05T12:04:44.522Z,48.27
2023-05-05T12:05:44.508Z,47.96
2023-05-05T12:06:44.530Z,47.56
2023-05-05T12:07:44.548Z,46.98
2023-05-05T12:08:44.615Z,47.50
2023-05-05T12:09:44.591Z,46.79
2023-05-05T12:10:44.628Z,46.57
2023-05-05T12:11:44.682Z,47.61
2023-05-05T12:12:44.759Z,47.02
2023-05-05T12:13:44.800Z,46.88
2023-05-05T12:14:44.860Z,45.98
2023-05-05T12:15:44.903Z,46.45
2023-05-05T12:16:45.060Z,44.85
2023-05-05T12:17:45.231Z,44.73
2023-05-05T12:18:44.972Z,46.31
2023-05-05T12:19:45.072Z,45.89
2023-05-05T12:20:45.042Z,43.98
2023-05-05T12:21:45.069Z,42.58
2023-05-05T12:22:45.123Z,42.36
2023-05-05T12:23:45.171Z,43.82
2023-05-05T12:24:45.201Z,44.35
2023-05-05T12:25:45.149Z,45.28
2023-05-05T12:26:45.197Z,45.71
2023-05-05T12:27:45.241Z,44.95
2023-05-05T12:28:45.282Z,42.38
2023-05-05T12:29:45.284Z,42.38
2023-05-05T12:30:45.361Z,43.53
2023-05-05T12:31:45.455Z,41.74
2023-05-05T12:32:45.478Z,41.94
2023-05-05T12:33:45.383Z,42.43
2023-05-05T12:34:45.421Z,41.74
2023-05-05T12:35:45.468Z,42.18
2023-05-05T12:36:45.505Z,42.86
2023-05-05T12:37:45.579Z,41.41
2023-05-05T12:38:45.617Z,41.85
2023-05-05T12:39:45.671Z,43.86
2023-05-05T12:40:45.794Z,45.08
2023-05-05T12:41:45.704Z,45.92
2023-05-05T12:42:46.332Z,46.59
2023-05-05T12:43:45.804Z,45.57
2023-05-05T12:44:45.848Z,45.97
2023-05-05T12:45:45.939Z,46.15
2023-05-05T12:46:45.946Z,45.36
2023-05-05T12:47:46.042Z,45.79
2023-05-05T12:48:48.371Z,46.39
2023-05-05T12:49:56.927Z,45.82
2023-05-05T12:50:46.088Z,46.44
2023-05-05T12:51:46.052Z,48.14
2023-05-05T12:52:46.118Z,46.95
2023-05-05T12:53:46.201Z,47.66
2023-05-05T12:54:46.169Z,47.66
2023-05-05T12:55:46.220Z,47.54
2023-05-05T12:56:46.280Z,47.25
2023-05-05T12:57:46.329Z,47.34
2023-05-05T12:58:46.309Z,47.44
2023-05-05T12:59:46.394Z,47.94
2023-05-05T13:00:46.452Z,47.62
2023-05-05T13:01:46.524Z,47.13
2023-05-05T13:02:46.504Z,46.83
2023-05-05T13:03:46.517Z,46.33
2023-05-05T13:04:46.592Z,46.80
2023-05-05T13:05:46.867Z,48.33
2023-05-05T13:06:46.688Z,49.12
2023-05-05T13:07:46.678Z,48.53
2023-05-05T13:08:46.645Z,48.82
2023-05-05T13:09:46.698Z,49.02
2023-05-05T13:10:46.748Z,49.02
2023-05-05T13:11:46.792Z,48.70
2023-05-05T13:12:46.874Z,48.90
2023-05-05T13:13:46.892Z,48.60
2023-05-05T13:14:46.951Z,48.53
2023-05-05T13:15:47.054Z,48.82
2023-05-05T13:16:47.005Z,48.92
2023-05-05T13:17:47.106Z,48.50
2023-05-05T13:18:47.108Z,48.53
2023-05-05T13:19:47.163Z,48.92
2023-05-05T13:20:47.180Z,49.02
2023-05-05T13:21:47.240Z,48.43
2023-05-05T13:22:47.433Z,48.63
2023-05-05T13:23:47.316Z,48.33